Time;durP1;ratioP1;P1;durP2;ratioP2;P2;SDS_P1;SDS_P2;PMS_P1;PMS_P2;Temp;Humidity;BMP_temperature;BMP_pressure;BME280_temperature;BME280_humidity;BME280_pressure;Samples;Min_cycle;Max_cycle;Signal;HPM_P1;HPM_P2
2021/12/07 00:02:07;;;;;;;6.70;2.83;;;;;;;;;;4852937;29;20524;-88
2021/12/07 00:04:33;;;;;;;6.80;2.45;;;;;;;;;;4859891;29;20184;-87
2021/12/07 00:06:59;;;;;;;7.50;2.35;;;;;;;;;;4866342;29;20188;-88
2021/12/07 00:09:25;;;;;;;5.53;2.40;;;;;;;;;;4850448;29;20211;-88
2021/12/07 00:11:51;;;;;;;4.15;1.88;;;;;;;;;;4851457;29;20197;-88
2021/12/07 00:14:25;;;;;;;14.13;4.18;;;;;;;;;;4853843;29;20189;-88
2021/12/07 00:16:52;;;;;;;15.77;2.58;;;;;;;;;;4867363;29;20175;-88
2021/12/07 00:19:19;;;;;;;4.55;2.17;;;;;;;;;;4866360;29;20200;-88
2021/12/07 00:21:45;;;;;;;10.05;2.45;;;;;;;;;;4913274;29;20224;-88
2021/12/07 00:24:12;;;;;;;3.20;2.00;;;;;;;;;;4945631;29;20188;-88
2021/12/07 00:26:39;;;;;;;5.45;2.80;;;;;;;;;;4965330;28;20185;-89
2021/12/07 00:29:05;;;;;;;6.78;2.47;;;;;;;;;;4947717;29;20180;-89
2021/12/07 00:31:39;;;;;;;7.18;1.73;;;;;;;;;;4948388;29;20189;-89
2021/12/07 00:34:39;;;;;;;6.25;2.15;;;;;;;;;;4965854;28;20648;-89
2021/12/07 00:37:06;;;;;;;4.50;1.70;;;;;;;;;;4945132;29;20207;-88
2021/12/07 00:39:32;;;;;;;3.67;1.45;;;;;;;;;;4946453;29;20195;-89
2021/12/07 00:41:58;;;;;;;5.93;1.60;;;;;;;;;;4944358;29;20218;-89
2021/12/07 00:44:25;;;;;;;2.88;1.50;;;;;;;;;;4947470;29;20184;-88
2021/12/07 00:46:51;;;;;;;5.78;1.77;;;;;;;;;;4965879;29;20172;-91
2021/12/07 00:49:17;;;;;;;5.70;1.50;;;;;;;;;;4946120;29;20413;-93
2021/12/07 00:51:44;;;;;;;4.82;1.10;;;;;;;;;;4965894;28;20195;-87
2021/12/07 00:54:10;;;;;;;5.35;1.60;;;;;;;;;;4965419;28;20188;-88
2021/12/07 00:56:36;;;;;;;7.47;1.50;;;;;;;;;;4946097;29;20272;-87
2021/12/07 00:59:03;;;;;;;3.15;1.52;;;;;;;;;;4947852;28;20180;-89
2021/12/07 01:01:29;;;;;;;4.22;1.45;;;;;;;;;;4948919;29;20204;-86
2021/12/07 01:03:55;;;;;;;6.35;1.25;;;;;;;;;;4946499;29;20201;-86
2021/12/07 01:09:01;;;;;;;3.08;1.20;;;;;;;;;;4964792;29;20260;-90
2021/12/07 01:25:13;;;;;;;2.58;1.27;;;;;;;;;;4964435;28;20747;-92
2021/12/07 01:27:40;;;;;;;4.00;1.65;;;;;;;;;;4945677;29;20192;-92
2021/12/07 01:30:31;;;;;;;2.90;1.60;;;;;;;;;;4942774;29;20185;-90
2021/12/07 01:36:05;;;;;;;6.13;1.70;;;;;;;;;;4859544;29;20192;-88
2021/12/07 01:41:27;;;;;;;1.77;1.17;;;;;;;;;;4871962;29;20264;-89
2021/12/07 01:46:52;;;;;;;10.00;1.90;;;;;;;;;;4871401;29;20187;-90
2021/12/07 01:59:51;;;;;;;5.72;1.80;;;;;;;;;;4870239;29;20195;-91
2021/12/07 02:02:17;;;;;;;3.70;1.33;;;;;;;;;;4855356;29;20276;-90
2021/12/07 02:04:44;;;;;;;5.88;1.20;;;;;;;;;;4871371;29;20287;-92
2021/12/07 02:07:10;;;;;;;3.00;1.38;;;;;;;;;;4853931;29;20210;-91
2021/12/07 02:09:40;;;;;;;3.90;1.25;;;;;;;;;;4854106;29;20199;-91
2021/12/07 02:12:07;;;;;;;4.60;1.65;;;;;;;;;;4873519;29;20224;-90
2021/12/07 02:14:34;;;;;;;4.47;1.33;;;;;;;;;;4936702;29;20288;-90
2021/12/07 02:17:02;;;;;;;3.25;2.05;;;;;;;;;;4948877;29;20185;-91
2021/12/07 02:19:28;;;;;;;1.90;1.20;;;;;;;;;;4948042;29;20201;-91
2021/12/07 02:21:55;;;;;;;2.47;1.25;;;;;;;;;;4944922;29;20275;-89
2021/12/07 02:24:21;;;;;;;2.88;1.27;;;;;;;;;;4946373;29;20181;-89
2021/12/07 02:26:48;;;;;;;3.67;1.20;;;;;;;;;;4946214;29;20185;-88
2021/12/07 02:29:14;;;;;;;4.70;2.10;;;;;;;;;;4948952;29;20229;-88
2021/12/07 02:31:40;;;;;;;4.45;1.30;;;;;;;;;;4949855;29;20177;-89
2021/12/07 02:34:07;;;;;;;3.75;2.00;;;;;;;;;;4945682;29;20189;-89
2021/12/07 02:36:33;;;;;;;4.47;1.30;;;;;;;;;;4947439;29;20193;-89
2021/12/07 02:38:59;;;;;;;3.88;1.70;;;;;;;;;;4947236;29;20197;-87
2021/12/07 02:41:26;;;;;;;4.18;1.52;;;;;;;;;;4946360;29;20256;-89
2021/12/07 02:43:52;;;;;;;16.25;2.00;;;;;;;;;;4950470;29;20177;-86
2021/12/07 02:46:18;;;;;;;10.70;1.95;;;;;;;;;;4942066;29;20208;-85
2021/12/07 02:48:44;;;;;;;5.25;2.30;;;;;;;;;;4945272;29;20192;-86
2021/12/07 02:51:10;;;;;;;6.38;1.63;;;;;;;;;;4944845;29;20185;-87
2021/12/07 02:53:37;;;;;;;4.13;2.00;;;;;;;;;;4946742;29;20208;-88
2021/12/07 02:56:04;;;;;;;5.35;2.30;;;;;;;;;;4948208;29;20181;-86
2021/12/07 02:58:30;;;;;;;5.97;2.30;;;;;;;;;;4947803;29;20181;-89
2021/12/07 03:01:23;;;;;;;5.95;2.08;;;;;;;;;;4943942;29;20227;-88
2021/12/07 03:04:20;;;;;;;5.90;1.70;;;;;;;;;;4946965;29;20303;-89
2021/12/07 03:06:49;;;;;;;5.35;1.80;;;;;;;;;;4962705;29;20220;-87
2021/12/07 03:26:01;;;;;;;5.43;2.08;;;;;;;;;;4907951;29;20282;-87
2021/12/07 03:28:28;;;;;;;4.70;1.63;;;;;;;;;;4883988;29;20190;-87
2021/12/07 03:30:54;;;;;;;6.40;2.15;;;;;;;;;;4900522;29;20201;-88
2021/12/07 03:33:20;;;;;;;3.60;1.60;;;;;;;;;;4904909;29;20277;-88
2021/12/07 03:35:46;;;;;;;9.02;2.38;;;;;;;;;;4906222;29;20186;-88
2021/12/07 03:38:12;;;;;;;3.05;1.98;;;;;;;;;;4907216;29;20195;-88
2021/12/07 03:40:38;;;;;;;5.25;1.90;;;;;;;;;;4888836;29;20179;-87
2021/12/07 03:43:05;;;;;;;8.18;2.05;;;;;;;;;;4888603;29;20228;-90
2021/12/07 03:45:32;;;;;;;7.22;2.05;;;;;;;;;;4902925;29;20222;-89
2021/12/07 03:47:58;;;;;;;5.10;1.45;;;;;;;;;;4890412;29;20281;-89
2021/12/07 03:50:24;;;;;;;5.20;2.03;;;;;;;;;;4904557;29;25223;-89
2021/12/07 03:52:51;;;;;;;4.10;1.40;;;;;;;;;;4942672;29;20650;-87
2021/12/07 03:55:17;;;;;;;3.90;1.83;;;;;;;;;;4946614;29;20260;-87
2021/12/07 03:57:43;;;;;;;7.28;2.40;;;;;;;;;;4941866;29;20204;-87
2021/12/07 04:00:12;;;;;;;5.85;1.52;;;;;;;;;;4966132;28;20202;-87
2021/12/07 04:02:40;;;;;;;3.13;1.80;;;;;;;;;;4948113;29;20213;-88
2021/12/07 04:05:14;;;;;;;6.82;1.65;;;;;;;;;;4949413;28;20220;-84
2021/12/07 04:07:40;;;;;;;3.65;1.58;;;;;;;;;;4948883;29;20642;-86
2021/12/07 04:10:06;;;;;;;2.90;1.17;;;;;;;;;;4945407;29;20215;-89
2021/12/07 04:12:33;;;;;;;4.82;1.70;;;;;;;;;;4946909;29;20270;-87
2021/12/07 04:14:59;;;;;;;4.35;1.67;;;;;;;;;;4965847;29;20241;-88
2021/12/07 04:17:25;;;;;;;5.93;1.75;;;;;;;;;;4948085;28;20532;-90
2021/12/07 04:19:51;;;;;;;3.60;1.45;;;;;;;;;;4950872;29;20265;-90
2021/12/07 04:22:17;;;;;;;2.45;1.25;;;;;;;;;;4944422;29;20235;-90
2021/12/07 04:24:43;;;;;;;5.57;1.58;;;;;;;;;;4946084;29;20181;-90
2021/12/07 04:27:10;;;;;;;6.18;1.73;;;;;;;;;;4965643;28;20219;-89
2021/12/07 04:29:36;;;;;;;6.63;1.63;;;;;;;;;;4948821;29;20200;-89
2021/12/07 04:32:02;;;;;;;7.55;1.70;;;;;;;;;;4949057;29;20177;-87
2021/12/07 04:34:28;;;;;;;7.60;1.60;;;;;;;;;;4964206;29;20852;-90
2021/12/07 04:36:54;;;;;;;2.35;1.30;;;;;;;;;;4947988;29;20635;-90
2021/12/07 04:39:20;;;;;;;6.57;1.75;;;;;;;;;;4966394;28;20253;-91
2021/12/07 04:41:48;;;;;;;3.45;1.35;;;;;;;;;;4944944;29;20193;-89
2021/12/07 04:44:14;;;;;;;4.65;2.47;;;;;;;;;;4965115;28;20183;-89
2021/12/07 04:47:05;;;;;;;4.05;1.65;;;;;;;;;;4966029;29;20638;-89
2021/12/07 04:50:02;;;;;;;5.57;1.67;;;;;;;;;;4963859;29;20188;-89
2021/12/07 04:57:48;;;;;;;3.72;1.58;;;;;;;;;;4965217;28;20221;-89
2021/12/07 05:00:14;;;;;;;6.63;1.30;;;;;;;;;;4964916;28;20287;-87
2021/12/07 05:02:44;;;;;;;5.15;2.00;;;;;;;;;;4947294;29;20211;-88
2021/12/07 05:05:12;;;;;;;5.80;1.40;;;;;;;;;;4964224;28;20231;-88
2021/12/07 05:07:43;;;;;;;7.55;1.67;;;;;;;;;;4949269;29;20177;-88
2021/12/07 05:10:17;;;;;;;3.70;1.95;;;;;;;;;;4947395;29;20188;-88
2021/12/07 05:15:27;;;;;;;10.43;1.80;;;;;;;;;;4965289;28;20196;-89
2021/12/07 05:39:36;;;;;;;7.13;2.10;;;;;;;;;;4942504;29;20203;-88
2021/12/07 05:42:03;;;;;;;2.33;1.70;;;;;;;;;;4940831;29;20213;-89
2021/12/07 05:44:29;;;;;;;5.15;2.20;;;;;;;;;;4925429;29;20405;-89
2021/12/07 05:46:55;;;;;;;8.32;2.22;;;;;;;;;;4928585;29;20189;-89
2021/12/07 05:49:21;;;;;;;4.25;1.85;;;;;;;;;;4941172;29;20649;-88
2021/12/07 05:51:47;;;;;;;2.70;2.08;;;;;;;;;;4941156;29;20268;-89
2021/12/07 05:54:13;;;;;;;8.32;2.28;;;;;;;;;;4940698;29;20721;-88
2021/12/07 05:56:39;;;;;;;4.53;2.58;;;;;;;;;;4940591;29;20182;-87
2021/12/07 05:59:05;;;;;;;9.27;3.72;;;;;;;;;;4927151;29;20201;-88
2021/12/07 06:01:31;;;;;;;9.40;3.35;;;;;;;;;;4941863;29;20178;-89
2021/12/07 06:03:57;;;;;;;7.00;2.50;;;;;;;;;;4924002;29;20209;-89
2021/12/07 06:06:23;;;;;;;7.10;3.83;;;;;;;;;;4938444;29;20593;-89
2021/12/07 06:08:49;;;;;;;5.68;3.60;;;;;;;;;;4945307;29;20208;-87
2021/12/07 06:11:15;;;;;;;10.52;3.80;;;;;;;;;;4947489;28;20176;-89
2021/12/07 06:13:41;;;;;;;11.73;3.97;;;;;;;;;;4948293;29;20319;-90
2021/12/07 06:16:08;;;;;;;5.90;2.90;;;;;;;;;;4945131;29;20550;-88
2021/12/07 06:18:35;;;;;;;4.65;3.20;;;;;;;;;;4949167;29;20635;-90
2021/12/07 06:21:01;;;;;;;2.67;2.40;;;;;;;;;;4945225;29;20200;-89
2021/12/07 06:23:28;;;;;;;9.00;3.50;;;;;;;;;;4950540;29;20216;-90
2021/12/07 06:25:55;;;;;;;5.57;3.00;;;;;;;;;;4951748;29;20204;-90
2021/12/07 06:28:21;;;;;;;5.40;3.60;;;;;;;;;;4967598;29;20196;-88
2021/12/07 06:30:48;;;;;;;9.02;3.50;;;;;;;;;;4948303;29;20184;-89
2021/12/07 06:33:15;;;;;;;4.95;3.35;;;;;;;;;;4947022;29;20212;-91
2021/12/07 06:35:41;;;;;;;4.82;3.35;;;;;;;;;;4950336;29;20193;-88
2021/12/07 06:38:08;;;;;;;6.43;4.00;;;;;;;;;;4950807;28;20181;-88
2021/12/07 06:40:34;;;;;;;9.30;3.95;;;;;;;;;;4951310;29;20322;-90
2021/12/07 06:43:00;;;;;;;4.93;3.90;;;;;;;;;;4948943;29;20296;-90
2021/12/07 06:45:27;;;;;;;9.25;4.45;;;;;;;;;;4947892;29;20192;-90
2021/12/07 06:47:54;;;;;;;11.90;4.10;;;;;;;;;;4947497;29;20227;-90
2021/12/07 06:50:20;;;;;;;5.80;4.28;;;;;;;;;;4949646;28;20631;-88
2021/12/07 06:52:46;;;;;;;5.20;4.00;;;;;;;;;;4950977;29;20184;-90
2021/12/07 06:55:12;;;;;;;5.40;4.03;;;;;;;;;;4967162;29;20195;-90
2021/12/07 06:57:38;;;;;;;7.28;4.28;;;;;;;;;;4967138;28;20195;-90
2021/12/07 07:00:06;;;;;;;5.25;4.10;;;;;;;;;;4946882;29;20196;-90
2021/12/07 07:02:32;;;;;;;8.25;4.57;;;;;;;;;;4950967;28;20219;-90
2021/12/07 07:04:58;;;;;;;7.88;4.20;;;;;;;;;;4947372;29;20237;-91
2021/12/07 07:07:24;;;;;;;9.73;5.65;;;;;;;;;;4961444;28;20185;-90
2021/12/07 07:09:50;;;;;;;8.65;4.38;;;;;;;;;;4946847;29;20185;-90
2021/12/07 07:12:17;;;;;;;7.22;4.28;;;;;;;;;;4949729;29;20197;-90
2021/12/07 07:14:43;;;;;;;7.90;4.53;;;;;;;;;;4948667;29;20199;-90
2021/12/07 07:17:09;;;;;;;8.15;4.72;;;;;;;;;;4948807;28;20239;-91
2021/12/07 07:19:35;;;;;;;8.32;4.60;;;;;;;;;;4950466;29;20180;-90
2021/12/07 07:22:02;;;;;;;5.23;3.80;;;;;;;;;;4949324;29;20293;-90
2021/12/07 07:24:33;;;;;;;6.70;4.70;;;;;;;;;;4949533;29;20440;-90
2021/12/07 07:26:59;;;;;;;10.13;4.50;;;;;;;;;;4947854;29;20243;-90
2021/12/07 07:29:26;;;;;;;11.00;6.07;;;;;;;;;;4949637;29;20212;-89
2021/12/07 07:31:52;;;;;;;6.40;4.30;;;;;;;;;;4950439;29;20173;-89
2021/12/07 07:34:18;;;;;;;7.65;4.97;;;;;;;;;;4944048;29;20185;-91
2021/12/07 07:36:45;;;;;;;5.38;4.43;;;;;;;;;;4964175;28;20181;-91
2021/12/07 07:39:11;;;;;;;9.60;4.55;;;;;;;;;;4946232;29;20180;-89
2021/12/07 07:41:37;;;;;;;9.43;5.38;;;;;;;;;;4948786;29;20197;-90
2021/12/07 07:44:05;;;;;;;12.45;5.10;;;;;;;;;;4966380;28;20247;-88
2021/12/07 07:46:31;;;;;;;5.88;4.30;;;;;;;;;;4965281;29;20168;-90
2021/12/07 07:48:57;;;;;;;6.40;4.43;;;;;;;;;;4948066;29;20188;-90
2021/12/07 07:51:23;;;;;;;6.28;5.10;;;;;;;;;;4966005;28;20192;-91
2021/12/07 07:53:50;;;;;;;6.85;4.90;;;;;;;;;;4965768;28;20272;-91
2021/12/07 07:56:17;;;;;;;7.43;4.50;;;;;;;;;;4949526;28;20240;-92
2021/12/07 07:58:43;;;;;;;5.10;4.60;;;;;;;;;;4947198;29;20260;-90
2021/12/07 08:01:09;;;;;;;8.00;4.65;;;;;;;;;;4946920;29;20192;-90
2021/12/07 08:03:35;;;;;;;9.15;4.82;;;;;;;;;;4947296;29;20238;-87
2021/12/07 08:06:01;;;;;;;6.55;5.03;;;;;;;;;;4947645;29;20224;-91
2021/12/07 08:08:28;;;;;;;6.82;4.60;;;;;;;;;;4949002;29;20194;-91
2021/12/07 08:10:54;;;;;;;6.25;4.35;;;;;;;;;;4949772;29;20605;-92
2021/12/07 08:13:20;;;;;;;7.82;4.32;;;;;;;;;;4943612;29;20486;-89
2021/12/07 08:15:48;;;;;;;5.35;3.90;;;;;;;;;;4963614;28;20189;-89
2021/12/07 08:18:14;;;;;;;4.68;3.72;;;;;;;;;;4965959;29;20288;-90
2021/12/07 08:20:41;;;;;;;5.45;4.00;;;;;;;;;;4966245;28;20194;-91
2021/12/07 08:23:07;;;;;;;5.07;4.18;;;;;;;;;;4933964;28;20222;-91
2021/12/07 08:25:35;;;;;;;6.55;4.40;;;;;;;;;;4949187;29;20176;-90
2021/12/07 08:28:01;;;;;;;4.03;3.65;;;;;;;;;;4946213;29;20220;-91
2021/12/07 08:30:28;;;;;;;5.95;4.07;;;;;;;;;;4944626;29;20204;-93
2021/12/07 08:32:54;;;;;;;5.72;4.28;;;;;;;;;;4944827;29;20285;-87
2021/12/07 08:35:21;;;;;;;5.75;4.15;;;;;;;;;;4948129;28;20177;-91
2021/12/07 08:37:47;;;;;;;7.15;4.32;;;;;;;;;;4966687;29;20184;-90
2021/12/07 08:40:15;;;;;;;7.88;4.80;;;;;;;;;;4944610;29;20189;-90
2021/12/07 08:42:41;;;;;;;6.10;4.63;;;;;;;;;;4963160;28;20204;-91
2021/12/07 08:45:08;;;;;;;5.35;4.20;;;;;;;;;;4944978;29;20249;-91
2021/12/07 08:47:34;;;;;;;6.15;3.80;;;;;;;;;;4946863;29;20187;-90
2021/12/07 08:50:00;;;;;;;7.07;3.95;;;;;;;;;;4946454;29;20173;-90
2021/12/07 08:52:26;;;;;;;5.68;3.92;;;;;;;;;;4942863;29;20260;-91
2021/12/07 09:00:04;;;;;;;5.60;3.60;;;;;;;;;;4963308;28;20908;-88
2021/12/07 09:02:30;;;;;;;5.25;3.50;;;;;;;;;;4945290;29;20243;-92
2021/12/07 09:04:56;;;;;;;3.92;3.42;;;;;;;;;;4966117;29;20231;-90
2021/12/07 09:07:23;;;;;;;3.30;3.00;;;;;;;;;;4945181;29;20181;-90
2021/12/07 09:09:50;;;;;;;7.75;3.63;;;;;;;;;;4946444;29;20192;-90
2021/12/07 09:12:17;;;;;;;5.32;3.10;;;;;;;;;;4945372;29;20207;-89
2021/12/07 09:14:44;;;;;;;3.80;3.35;;;;;;;;;;4946020;29;20216;-93
2021/12/07 09:17:12;;;;;;;4.32;3.60;;;;;;;;;;4948685;29;20180;-90
2021/12/07 09:19:38;;;;;;;3.83;3.10;;;;;;;;;;4950436;29;20189;-89
2021/12/07 09:22:05;;;;;;;3.22;2.85;;;;;;;;;;4961155;28;20208;-91
2021/12/07 09:24:31;;;;;;;6.03;3.53;;;;;;;;;;4944893;29;20187;-89
2021/12/07 09:26:58;;;;;;;4.38;3.15;;;;;;;;;;4943869;29;20180;-90
2021/12/07 09:29:24;;;;;;;6.03;3.65;;;;;;;;;;4937745;29;20188;-93
2021/12/07 09:31:50;;;;;;;3.67;3.00;;;;;;;;;;4940149;29;20227;-92
2021/12/07 09:34:17;;;;;;;3.60;3.30;;;;;;;;;;4964147;29;20192;-87
2021/12/07 09:36:44;;;;;;;3.63;3.10;;;;;;;;;;4964605;29;20181;-90
2021/12/07 09:39:11;;;;;;;4.22;3.22;;;;;;;;;;4962412;28;20188;-93
2021/12/07 09:41:39;;;;;;;3.72;3.20;;;;;;;;;;4944387;29;20193;-93
2021/12/07 09:44:06;;;;;;;4.63;3.00;;;;;;;;;;4948398;29;20190;-93
2021/12/07 09:46:33;;;;;;;3.50;3.10;;;;;;;;;;4947416;29;20194;-89
2021/12/07 09:48:59;;;;;;;5.65;3.20;;;;;;;;;;4945335;29;20191;-95
2021/12/07 09:51:54;;;;;;;7.13;3.20;;;;;;;;;;4946913;29;20243;-93
2021/12/07 09:54:35;;;;;;;4.13;3.20;;;;;;;;;;4910072;29;20202;-96
2021/12/07 09:57:02;;;;;;;4.30;3.08;;;;;;;;;;4903674;29;20225;-93
2021/12/07 10:00:03;;;;;;;3.67;2.72;;;;;;;;;;4915780;29;20193;-93
2021/12/07 10:02:52;;;;;;;8.57;4.28;;;;;;;;;;4886199;29;20242;-94
2021/12/07 10:05:19;;;;;;;9.20;4.47;;;;;;;;;;4835543;29;20395;-90
2021/12/07 10:07:49;;;;;;;6.82;4.50;;;;;;;;;;4849991;29;20197;-91
2021/12/07 10:10:23;;;;;;;6.47;4.57;;;;;;;;;;4849284;29;20252;-92
2021/12/07 10:12:49;;;;;;;5.70;4.90;;;;;;;;;;4847194;29;20204;-88
2021/12/07 10:15:16;;;;;;;7.43;4.85;;;;;;;;;;4850102;29;20224;-93
2021/12/07 10:17:42;;;;;;;7.15;4.53;;;;;;;;;;4849889;29;20205;-95
2021/12/07 10:20:25;;;;;;;7.93;4.13;;;;;;;;;;4848905;29;20268;-85
2021/12/07 10:22:52;;;;;;;10.50;5.35;;;;;;;;;;4834200;29;20209;-88
2021/12/07 10:25:25;;;;;;;6.60;4.75;;;;;;;;;;4833750;29;20197;-89
2021/12/07 10:27:52;;;;;;;6.22;4.30;;;;;;;;;;4831715;29;20317;-89
2021/12/07 10:30:21;;;;;;;6.65;4.50;;;;;;;;;;4837421;29;20277;-92
2021/12/07 10:33:04;;;;;;;7.15;5.00;;;;;;;;;;4846199;29;20198;-90
2021/12/07 10:35:33;;;;;;;9.80;5.63;;;;;;;;;;4852165;29;20227;-93
2021/12/07 10:38:09;;;;;;;6.07;4.75;;;;;;;;;;4853532;29;20206;-89
2021/12/07 10:40:35;;;;;;;4.97;4.25;;;;;;;;;;4890817;29;20192;-90
2021/12/07 10:43:01;;;;;;;5.68;4.40;;;;;;;;;;4934845;29;20230;-90
2021/12/07 10:45:28;;;;;;;7.70;4.82;;;;;;;;;;4946961;29;20188;-90
2021/12/07 10:47:54;;;;;;;5.63;5.05;;;;;;;;;;4948081;29;20192;-91
2021/12/07 10:50:21;;;;;;;7.82;5.18;;;;;;;;;;4950507;29;20188;-89
2021/12/07 10:52:47;;;;;;;9.52;5.80;;;;;;;;;;4950644;29;20598;-91
2021/12/07 10:55:18;;;;;;;12.20;4.53;;;;;;;;;;4949469;29;20196;-89
2021/12/07 10:57:44;;;;;;;10.38;5.22;;;;;;;;;;4948224;29;20188;-90
2021/12/07 11:00:10;;;;;;;5.85;4.60;;;;;;;;;;4947407;29;20180;-87
2021/12/07 11:02:37;;;;;;;7.43;4.28;;;;;;;;;;4948796;29;20207;-89
2021/12/07 11:05:08;;;;;;;6.20;4.70;;;;;;;;;;4950725;29;20284;-90
2021/12/07 11:07:34;;;;;;;4.30;3.90;;;;;;;;;;4966378;29;20181;-91
2021/12/07 11:10:17;;;;;;;7.35;5.35;;;;;;;;;;4947059;29;20203;-92
2021/12/07 11:12:52;;;;;;;9.35;4.90;;;;;;;;;;4949624;29;20210;-87
2021/12/07 11:15:25;;;;;;;7.25;4.00;;;;;;;;;;4963183;29;20656;-88
2021/12/07 11:17:52;;;;;;;5.72;4.50;;;;;;;;;;4947000;29;20188;-90
2021/12/07 11:20:18;;;;;;;9.93;4.35;;;;;;;;;;4950363;28;20697;-90
2021/12/07 11:22:54;;;;;;;9.80;4.85;;;;;;;;;;4949948;29;20291;-96
2021/12/07 11:31:21;;;;;;;8.13;4.45;;;;;;;;;;4965249;28;20208;-93
2021/12/07 11:33:55;;;;;;;7.88;4.47;;;;;;;;;;4946102;29;20192;-91
2021/12/07 11:36:21;;;;;;;6.32;3.90;;;;;;;;;;4946951;29;20193;-90
2021/12/07 11:38:48;;;;;;;7.35;4.40;;;;;;;;;;4947130;29;20278;-93
2021/12/07 11:41:33;;;;;;;11.50;4.57;;;;;;;;;;4949930;29;20169;-93
2021/12/07 11:44:06;;;;;;;9.50;4.95;;;;;;;;;;4950120;29;20272;-92
2021/12/07 11:46:33;;;;;;;8.77;4.18;;;;;;;;;;4966446;29;20176;-95
2021/12/07 11:49:06;;;;;;;9.48;4.63;;;;;;;;;;4964889;28;20240;-92
2021/12/07 11:54:53;;;;;;;17.10;5.13;;;;;;;;;;4966612;28;20219;-94
2021/12/07 11:57:20;;;;;;;17.25;6.57;;;;;;;;;;4945195;29;20263;-93
2021/12/07 11:59:48;;;;;;;15.00;5.53;;;;;;;;;;4948575;29;20184;-90
2021/12/07 12:02:14;;;;;;;8.05;4.90;;;;;;;;;;4948802;28;20192;-92
2021/12/07 12:04:42;;;;;;;12.23;4.30;;;;;;;;;;4949894;29;20184;-90
2021/12/07 12:07:09;;;;;;;7.88;4.13;;;;;;;;;;4947196;29;20204;-93
2021/12/07 12:09:37;;;;;;;9.93;4.93;;;;;;;;;;4965689;29;20176;-93
2021/12/07 12:12:14;;;;;;;10.30;5.10;;;;;;;;;;4966057;29;20670;-90
2021/12/07 12:14:58;;;;;;;10.90;4.50;;;;;;;;;;4956992;28;20180;-90
2021/12/07 12:17:43;;;;;;;12.50;4.75;;;;;;;;;;4958412;28;20204;-93
2021/12/07 12:20:26;;;;;;;11.65;4.93;;;;;;;;;;4963784;29;20180;-92
2021/12/07 12:22:59;;;;;;;14.90;4.43;;;;;;;;;;4948603;29;20235;-95
2021/12/07 12:25:27;;;;;;;12.65;4.50;;;;;;;;;;4949220;29;20177;-94
2021/12/07 12:27:54;;;;;;;14.48;4.40;;;;;;;;;;4969190;28;20208;-94
2021/12/07 12:30:25;;;;;;;13.18;3.78;;;;;;;;;;4941516;29;20208;-94
2021/12/07 12:32:59;;;;;;;7.30;3.35;;;;;;;;;;4966477;28;20184;-92
2021/12/07 12:35:27;;;;;;;6.60;3.45;;;;;;;;;;4946051;28;20179;-96
2021/12/07 12:37:53;;;;;;;11.43;3.35;;;;;;;;;;4942743;29;20180;-90
2021/12/07 12:40:21;;;;;;;14.00;4.40;;;;;;;;;;4964070;28;20199;-90
2021/12/07 12:42:49;;;;;;;14.15;3.92;;;;;;;;;;4941098;29;20457;-89
2021/12/07 12:45:21;;;;;;;6.05;3.20;;;;;;;;;;4963829;28;20188;-88
2021/12/07 12:48:19;;;;;;;11.82;3.78;;;;;;;;;;4944510;29;20181;-90
2021/12/07 12:50:48;;;;;;;10.50;3.92;;;;;;;;;;4928841;29;20185;-88
2021/12/07 12:53:15;;;;;;;12.90;3.92;;;;;;;;;;4964477;28;20176;-92
2021/12/07 12:55:58;;;;;;;13.18;3.10;;;;;;;;;;4949146;29;20191;-92
2021/12/07 12:58:31;;;;;;;12.32;3.38;;;;;;;;;;4944550;29;20285;-91
2021/12/07 13:01:03;;;;;;;13.32;3.55;;;;;;;;;;4947097;29;20590;-92
2021/12/07 13:03:42;;;;;;;7.25;2.90;;;;;;;;;;4945848;29;20288;-91
2021/12/07 13:06:11;;;;;;;14.38;3.03;;;;;;;;;;4946217;29;20267;-91
2021/12/07 13:08:52;;;;;;;8.27;3.28;;;;;;;;;;4937550;29;20187;-91
2021/12/07 13:11:31;;;;;;;7.05;3.35;;;;;;;;;;4947339;28;20180;-92
2021/12/07 13:13:57;;;;;;;11.52;3.85;;;;;;;;;;4949994;29;20195;-92
2021/12/07 13:16:23;;;;;;;14.73;3.30;;;;;;;;;;4943021;29;20192;-91
2021/12/07 13:18:59;;;;;;;8.40;3.42;;;;;;;;;;4947722;29;20701;-91
2021/12/07 13:21:25;;;;;;;13.07;3.15;;;;;;;;;;4947937;29;20191;-91
2021/12/07 13:23:58;;;;;;;7.57;2.88;;;;;;;;;;4946880;29;20256;-91
2021/12/07 13:26:24;;;;;;;11.48;3.75;;;;;;;;;;4953201;28;20219;-91
2021/12/07 13:29:02;;;;;;;14.57;3.47;;;;;;;;;;4955112;28;20184;-93
2021/12/07 13:31:35;;;;;;;11.48;4.20;;;;;;;;;;4945945;29;20248;-91
2021/12/07 13:34:02;;;;;;;9.15;3.10;;;;;;;;;;4949166;29;20268;-92
2021/12/07 13:36:36;;;;;;;9.32;3.33;;;;;;;;;;4951014;29;20189;-90
2021/12/07 13:39:05;;;;;;;9.30;2.80;;;;;;;;;;4942136;29;20180;-93
2021/12/07 13:41:31;;;;;;;8.35;4.13;;;;;;;;;;4954421;29;20188;-85
2021/12/07 13:44:03;;;;;;;10.00;3.42;;;;;;;;;;4954105;29;20231;-94
2021/12/07 13:46:29;;;;;;;17.80;3.35;;;;;;;;;;4952633;29;20208;-88
2021/12/07 13:49:07;;;;;;;6.57;2.95;;;;;;;;;;4952851;29;20199;-94
2021/12/07 13:51:33;;;;;;;11.07;2.30;;;;;;;;;;4953553;29;20195;-92
2021/12/07 13:54:01;;;;;;;7.90;3.28;;;;;;;;;;4952282;29;20196;-91
2021/12/07 13:56:27;;;;;;;5.88;2.20;;;;;;;;;;4945752;28;20315;-92
2021/12/07 13:59:03;;;;;;;7.95;2.90;;;;;;;;;;4954378;29;20188;-93
2021/12/07 14:01:31;;;;;;;8.55;2.78;;;;;;;;;;4950627;29;20188;-91
2021/12/07 14:03:57;;;;;;;11.88;3.50;;;;;;;;;;4951866;29;20415;-91
2021/12/07 14:06:24;;;;;;;9.05;3.35;;;;;;;;;;4947977;29;20228;-92
2021/12/07 14:08:50;;;;;;;5.03;2.40;;;;;;;;;;4951128;29;20192;-89
2021/12/07 14:11:17;;;;;;;10.45;3.50;;;;;;;;;;4954243;28;20180;-93
2021/12/07 14:13:44;;;;;;;7.72;3.45;;;;;;;;;;4954030;29;20199;-92
2021/12/07 14:16:10;;;;;;;10.18;3.05;;;;;;;;;;4954920;29;20192;-91
2021/12/07 14:18:38;;;;;;;8.63;2.70;;;;;;;;;;4948485;29;20184;-90
2021/12/07 14:21:05;;;;;;;5.40;2.50;;;;;;;;;;4952004;29;20248;-90
2021/12/07 14:23:42;;;;;;;7.03;2.70;;;;;;;;;;4952627;29;20233;-89
2021/12/07 14:26:12;;;;;;;5.70;2.28;;;;;;;;;;4950016;28;20231;-90
2021/12/07 14:28:40;;;;;;;9.02;2.75;;;;;;;;;;4953443;29;20266;-89
2021/12/07 14:31:06;;;;;;;6.65;2.95;;;;;;;;;;4950934;29;20180;-90
2021/12/07 14:33:36;;;;;;;3.53;2.30;;;;;;;;;;4948702;29;20282;-91
2021/12/07 14:36:03;;;;;;;5.40;2.33;;;;;;;;;;4949717;28;20185;-88
2021/12/07 14:38:33;;;;;;;11.00;2.97;;;;;;;;;;4950082;29;20192;-90
2021/12/07 14:41:08;;;;;;;5.97;3.10;;;;;;;;;;4951683;29;20185;-93
2021/12/07 14:43:34;;;;;;;10.40;3.17;;;;;;;;;;4966968;29;20211;-92
2021/12/07 14:46:04;;;;;;;4.80;2.50;;;;;;;;;;4948348;29;20188;-90
2021/12/07 14:48:34;;;;;;;7.50;3.03;;;;;;;;;;4947995;29;20181;-91
2021/12/07 14:51:12;;;;;;;13.10;2.55;;;;;;;;;;4947441;29;20181;-93
2021/12/07 14:53:41;;;;;;;11.02;3.40;;;;;;;;;;4936973;29;20195;-93
2021/12/07 14:56:07;;;;;;;9.48;2.83;;;;;;;;;;4950649;29;20180;-93
2021/12/07 14:58:35;;;;;;;9.32;2.70;;;;;;;;;;4950495;29;20239;-91
2021/12/07 15:01:02;;;;;;;6.88;3.97;;;;;;;;;;4949118;29;20658;-92
2021/12/07 15:03:35;;;;;;;5.30;2.45;;;;;;;;;;4948241;29;20219;-91
2021/12/07 15:06:01;;;;;;;7.55;3.30;;;;;;;;;;4948820;29;20284;-91
2021/12/07 15:08:27;;;;;;;8.13;3.42;;;;;;;;;;4950219;28;20283;-92
2021/12/07 15:10:53;;;;;;;4.80;2.67;;;;;;;;;;4950857;29;20211;-91
2021/12/07 15:13:22;;;;;;;4.28;2.40;;;;;;;;;;4946245;29;20200;-92
2021/12/07 15:16:01;;;;;;;10.63;2.83;;;;;;;;;;4944189;29;20191;-93
2021/12/07 15:18:28;;;;;;;8.90;3.58;;;;;;;;;;4947938;29;20192;-92
2021/12/07 15:20:54;;;;;;;8.20;2.92;;;;;;;;;;4947440;29;20189;-95
2021/12/07 15:23:20;;;;;;;12.07;3.50;;;;;;;;;;4949963;28;20204;-91
2021/12/07 15:26:07;;;;;;;10.40;2.83;;;;;;;;;;4950620;29;20236;-90
2021/12/07 15:28:33;;;;;;;9.98;3.00;;;;;;;;;;4965354;29;20194;-89
2021/12/07 15:31:01;;;;;;;5.43;2.58;;;;;;;;;;4948918;29;20429;-89
2021/12/07 15:33:28;;;;;;;8.27;2.40;;;;;;;;;;4966815;28;20212;-89
2021/12/07 15:35:53;;;;;;;6.63;2.60;;;;;;;;;;4948437;29;20188;-90
2021/12/07 15:38:20;;;;;;;6.00;3.30;;;;;;;;;;4949096;28;20190;-87
2021/12/07 15:40:47;;;;;;;6.03;2.20;;;;;;;;;;4950558;29;20177;-89
2021/12/07 15:43:14;;;;;;;6.47;3.60;;;;;;;;;;4946213;29;20239;-90
2021/12/07 15:45:42;;;;;;;5.80;2.90;;;;;;;;;;4947217;29;20184;-91
2021/12/07 15:48:08;;;;;;;6.85;2.90;;;;;;;;;;4965209;28;20184;-89
2021/12/07 15:50:35;;;;;;;5.45;2.90;;;;;;;;;;4948365;29;20184;-90
2021/12/07 15:53:12;;;;;;;7.75;3.10;;;;;;;;;;4946296;29;20184;-89
2021/12/07 15:55:40;;;;;;;12.70;3.40;;;;;;;;;;4961903;29;20187;-91
2021/12/07 15:58:20;;;;;;;6.97;3.40;;;;;;;;;;4946145;29;20216;-92
2021/12/07 16:00:57;;;;;;;7.72;2.95;;;;;;;;;;4947294;29;20553;-92
2021/12/07 16:03:25;;;;;;;6.93;2.40;;;;;;;;;;4947055;29;20200;-93
2021/12/07 16:05:56;;;;;;;6.93;2.50;;;;;;;;;;4951545;29;20220;-93
2021/12/07 16:08:24;;;;;;;5.28;2.70;;;;;;;;;;4948832;28;20730;-91
2021/12/07 16:10:51;;;;;;;6.28;2.45;;;;;;;;;;4950623;29;20662;-92
2021/12/07 16:13:23;;;;;;;10.60;2.90;;;;;;;;;;4945024;29;20196;-91
2021/12/07 16:15:53;;;;;;;7.40;2.58;;;;;;;;;;4946401;29;20181;-91
2021/12/07 16:18:19;;;;;;;6.45;2.67;;;;;;;;;;4946925;29;20185;-91
2021/12/07 16:20:45;;;;;;;9.70;2.78;;;;;;;;;;4965478;28;20227;-90
2021/12/07 16:23:11;;;;;;;6.28;2.42;;;;;;;;;;4949679;28;20227;-91
2021/12/07 16:25:39;;;;;;;7.15;2.45;;;;;;;;;;4950147;29;20203;-90
2021/12/07 16:28:06;;;;;;;5.05;1.95;;;;;;;;;;4942745;29;20184;-91